sensor_id;sensor_type;location;lat;lon;timestamp;P1;durP1;ratioP1;P2;durP2;ratioP2
26656;SDS011;14279;50.010;8.260;2023-04-01T00:01:03;10.57;;;1.67;;
26656;SDS011;14279;50.010;8.260;2023-04-01T00:03:29;3.20;;;1.53;;
26656;SDS011;14279;50.010;8.260;2023-04-01T00:05:56;6.53;;;1.83;;
26656;SDS011;14279;50.010;8.260;2023-04-01T00:08:22;8.00;;;2.23;;
26656;SDS011;14279;50.010;8.260;2023-04-01T00:10:49;4.17;;;2.00;;
26656;SDS011;14279;50.010;8.260;2023-04-01T00:13:14;6.03;;;1.73;;
26656;SDS011;14279;50.010;8.260;2023-04-01T00:15:40;5.07;;;1.60;;
26656;SDS011;14279;50.010;8.260;2023-04-01T00:18:06;6.57;;;1.80;;
26656;SDS011;14279;50.010;8.260;2023-04-01T00:20:32;7.70;;;1.50;;
26656;SDS011;14279;50.010;8.260;2023-04-01T00:22:57;3.40;;;1.87;;
26656;SDS011;14279;50.010;8.260;2023-04-01T00:25:22;6.17;;;1.50;;
26656;SDS011;14279;50.010;8.260;2023-04-01T00:27:48;11.43;;;1.87;;
26656;SDS011;14279;50.010;8.260;2023-04-01T00:30:14;4.97;;;1.70;;
26656;SDS011;14279;50.010;8.260;2023-04-01T00:32:39;9.93;;;1.70;;
26656;SDS011;14279;50.010;8.260;2023-04-01T00:35:05;6.37;;;1.37;;
26656;SDS011;14279;50.010;8.260;2023-04-01T00:37:30;4.40;;;1.30;;
26656;SDS011;14279;50.010;8.260;2023-04-01T00:39:56;4.60;;;1.60;;
26656;SDS011;14279;50.010;8.260;2023-04-01T00:42:22;7.50;;;1.53;;
26656;SDS011;14279;50.010;8.260;2023-04-01T00:44:50;3.50;;;1.33;;
26656;SDS011;14279;50.010;8.260;2023-04-01T00:47:17;4.83;;;1.20;;
26656;SDS011;14279;50.010;8.260;2023-04-01T00:49:43;6.87;;;1.70;;
26656;SDS011;14279;50.010;8.260;2023-04-01T00:52:13;7.93;;;1.87;;
26656;SDS011;14279;50.010;8.260;2023-04-01T00:54:41;5.17;;;1.40;;
26656;SDS011;14279;50.010;8.260;2023-04-01T00:57:12;9.40;;;1.57;;
26656;SDS011;14279;50.010;8.260;2023-04-01T00:59:58;4.63;;;1.70;;
26656;SDS011;14279;50.010;8.260;2023-04-01T01:02:24;5.43;;;2.00;;
26656;SDS011;14279;50.010;8.260;2023-04-01T01:04:49;5.83;;;1.87;;
26656;SDS011;14279;50.010;8.260;2023-04-01T01:07:31;8.57;;;2.00;;
26656;SDS011;14279;50.010;8.260;2023-04-01T01:10:10;6.13;;;1.73;;
26656;SDS011;14279;50.010;8.260;2023-04-01T01:15:20;4.27;;;1.57;;
26656;SDS011;14279;50.010;8.260;2023-04-01T01:18:09;7.63;;;1.80;;
26656;SDS011;14279;50.010;8.260;2023-04-01T01:25:56;6.93;;;1.83;;
26656;SDS011;14279;50.010;8.260;2023-04-01T01:31:50;7.63;;;1.73;;
26656;SDS011;14279;50.010;8.260;2023-04-01T01:34:36;3.63;;;1.50;;
26656;SDS011;14279;50.010;8.260;2023-04-01T01:37:16;10.77;;;1.77;;
26656;SDS011;14279;50.010;8.260;2023-04-01T01:39:44;5.33;;;1.27;;
26656;SDS011;14279;50.010;8.260;2023-04-01T01:42:15;10.43;;;2.90;;
26656;SDS011;14279;50.010;8.260;2023-04-01T01:44:42;3.03;;;1.40;;
26656;SDS011;14279;50.010;8.260;2023-04-01T01:47:10;2.50;;;1.30;;
26656;SDS011;14279;50.010;8.260;2023-04-01T01:49:36;3.60;;;1.20;;
26656;SDS011;14279;50.010;8.260;2023-04-01T01:52:05;12.60;;;1.63;;
26656;SDS011;14279;50.010;8.260;2023-04-01T01:54:30;7.30;;;1.40;;
26656;SDS011;14279;50.010;8.260;2023-04-01T01:56:59;4.97;;;1.60;;
26656;SDS011;14279;50.010;8.260;2023-04-01T01:59:29;3.80;;;1.37;;
26656;SDS011;14279;50.010;8.260;2023-04-01T02:01:57;3.93;;;1.50;;
26656;SDS011;14279;50.010;8.260;2023-04-01T02:04:23;10.67;;;2.33;;
26656;SDS011;14279;50.010;8.260;2023-04-01T02:06:56;7.23;;;1.60;;
26656;SDS011;14279;50.010;8.260;2023-04-01T02:12:48;7.10;;;1.53;;
26656;SDS011;14279;50.010;8.260;2023-04-01T02:15:18;5.33;;;1.67;;
26656;SDS011;14279;50.010;8.260;2023-04-01T02:17:46;11.93;;;1.60;;
26656;SDS011;14279;50.010;8.260;2023-04-01T02:20:15;6.17;;;1.60;;
26656;SDS011;14279;50.010;8.260;2023-04-01T02:22:46;4.73;;;1.23;;
26656;SDS011;14279;50.010;8.260;2023-04-01T02:25:16;7.23;;;1.57;;
26656;SDS011;14279;50.010;8.260;2023-04-01T02:27:47;3.33;;;1.57;;
26656;SDS011;14279;50.010;8.260;2023-04-01T02:30:16;3.93;;;1.67;;
26656;SDS011;14279;50.010;8.260;2023-04-01T02:32:42;4.73;;;1.70;;
26656;SDS011;14279;50.010;8.260;2023-04-01T02:35:11;5.97;;;1.80;;
26656;SDS011;14279;50.010;8.260;2023-04-01T02:37:39;3.47;;;1.33;;
26656;SDS011;14279;50.010;8.260;2023-04-01T02:40:08;6.63;;;2.03;;
26656;SDS011;14279;50.010;8.260;2023-04-01T02:42:36;5.67;;;1.53;;
26656;SDS011;14279;50.010;8.260;2023-04-01T02:45:02;3.53;;;1.40;;
26656;SDS011;14279;50.010;8.260;2023-04-01T02:47:28;8.73;;;1.60;;
26656;SDS011;14279;50.010;8.260;2023-04-01T02:49:54;3.13;;;1.23;;
26656;SDS011;14279;50.010;8.260;2023-04-01T02:52:27;4.50;;;1.50;;
26656;SDS011;14279;50.010;8.260;2023-04-01T02:54:53;7.50;;;1.27;;
26656;SDS011;14279;50.010;8.260;2023-04-01T02:57:20;9.23;;;1.80;;
26656;SDS011;14279;50.010;8.260;2023-04-01T02:59:45;2.60;;;1.30;;
26656;SDS011;14279;50.010;8.260;2023-04-01T03:02:11;6.40;;;2.20;;
26656;SDS011;14279;50.010;8.260;2023-04-01T03:04:36;6.00;;;1.87;;
26656;SDS011;14279;50.010;8.260;2023-04-01T03:07:02;6.17;;;1.30;;
26656;SDS011;14279;50.010;8.260;2023-04-01T03:09:27;7.00;;;1.47;;
26656;SDS011;14279;50.010;8.260;2023-04-01T03:11:53;6.70;;;1.50;;
26656;SDS011;14279;50.010;8.260;2023-04-01T03:14:19;2.40;;;1.47;;
26656;SDS011;14279;50.010;8.260;2023-04-01T03:16:44;5.17;;;1.77;;
26656;SDS011;14279;50.010;8.260;2023-04-01T03:19:10;2.90;;;1.60;;
26656;SDS011;14279;50.010;8.260;2023-04-01T03:21:35;3.77;;;1.20;;
26656;SDS011;14279;50.010;8.260;2023-04-01T03:24:00;4.30;;;1.77;;
26656;SDS011;14279;50.010;8.260;2023-04-01T03:26:25;7.30;;;2.27;;
26656;SDS011;14279;50.010;8.260;2023-04-01T03:28:54;4.00;;;1.73;;
26656;SDS011;14279;50.010;8.260;2023-04-01T03:31:20;6.20;;;2.00;;
26656;SDS011;14279;50.010;8.260;2023-04-01T03:33:45;7.80;;;1.77;;
26656;SDS011;14279;50.010;8.260;2023-04-01T03:36:10;2.87;;;1.50;;
26656;SDS011;14279;50.010;8.260;2023-04-01T03:38:37;1.93;;;1.47;;
26656;SDS011;14279;50.010;8.260;2023-04-01T03:41:03;5.27;;;1.47;;
26656;SDS011;14279;50.010;8.260;2023-04-01T03:43:29;8.70;;;2.10;;
26656;SDS011;14279;50.010;8.260;2023-04-01T03:45:54;3.50;;;1.60;;
26656;SDS011;14279;50.010;8.260;2023-04-01T03:48:20;12.47;;;2.43;;
26656;SDS011;14279;50.010;8.260;2023-04-01T03:50:45;5.90;;;1.87;;
26656;SDS011;14279;50.010;8.260;2023-04-01T03:53:12;5.33;;;2.03;;
26656;SDS011;14279;50.010;8.260;2023-04-01T03:55:38;7.17;;;1.53;;
26656;SDS011;14279;50.010;8.260;2023-04-01T03:58:04;3.67;;;1.50;;
26656;SDS011;14279;50.010;8.260;2023-04-01T04:00:30;4.50;;;1.50;;
26656;SDS011;14279;50.010;8.260;2023-04-01T04:02:56;5.10;;;1.70;;
26656;SDS011;14279;50.010;8.260;2023-04-01T04:05:22;5.90;;;2.00;;
26656;SDS011;14279;50.010;8.260;2023-04-01T04:07:50;4.40;;;1.40;;
26656;SDS011;14279;50.010;8.260;2023-04-01T04:10:17;7.10;;;1.33;;
26656;SDS011;14279;50.010;8.260;2023-04-01T04:12:42;3.63;;;1.60;;
26656;SDS011;14279;50.010;8.260;2023-04-01T04:15:08;8.27;;;1.70;;
26656;SDS011;14279;50.010;8.260;2023-04-01T04:17:34;4.00;;;1.07;;
26656;SDS011;14279;50.010;8.260;2023-04-01T04:20:00;8.47;;;2.20;;
26656;SDS011;14279;50.010;8.260;2023-04-01T04:22:25;4.43;;;1.90;;
26656;SDS011;14279;50.010;8.260;2023-04-01T04:24:51;6.97;;;2.03;;
26656;SDS011;14279;50.010;8.260;2023-04-01T04:27:16;1.87;;;1.20;;
26656;SDS011;14279;50.010;8.260;2023-04-01T04:29:41;6.00;;;1.90;;
26656;SDS011;14279;50.010;8.260;2023-04-01T04:32:07;7.30;;;1.80;;
26656;SDS011;14279;50.010;8.260;2023-04-01T04:34:32;3.27;;;1.90;;
26656;SDS011;14279;50.010;8.260;2023-04-01T04:36:57;6.50;;;2.07;;
26656;SDS011;14279;50.010;8.260;2023-04-01T04:39:23;2.53;;;1.40;;
26656;SDS011;14279;50.010;8.260;2023-04-01T04:41:48;5.87;;;1.50;;
26656;SDS011;14279;50.010;8.260;2023-04-01T04:44:13;4.43;;;1.50;;
26656;SDS011;14279;50.010;8.260;2023-04-01T04:46:39;7.83;;;1.90;;
26656;SDS011;14279;50.010;8.260;2023-04-01T04:49:04;8.30;;;1.70;;
26656;SDS011;14279;50.010;8.260;2023-04-01T04:51:30;5.50;;;1.80;;
26656;SDS011;14279;50.010;8.260;2023-04-01T04:53:58;4.73;;;1.87;;
26656;SDS011;14279;50.010;8.260;2023-04-01T04:56:24;4.73;;;1.40;;
26656;SDS011;14279;50.010;8.260;2023-04-01T04:58:50;5.03;;;1.70;;
26656;SDS011;14279;50.010;8.260;2023-04-01T05:01:16;4.73;;;1.77;;
26656;SDS011;14279;50.010;8.260;2023-04-01T05:03:42;3.70;;;1.43;;
26656;SDS011;14279;50.010;8.260;2023-04-01T05:06:08;11.87;;;1.63;;
26656;SDS011;14279;50.010;8.260;2023-04-01T05:08:35;2.93;;;1.17;;
26656;SDS011;14279;50.010;8.260;2023-04-01T05:11:01;4.47;;;1.43;;
26656;SDS011;14279;50.010;8.260;2023-04-01T05:13:27;5.37;;;1.50;;
26656;SDS011;14279;50.010;8.260;2023-04-01T05:15:53;5.80;;;1.63;;
26656;SDS011;14279;50.010;8.260;2023-04-01T05:18:19;5.00;;;1.40;;
26656;SDS011;14279;50.010;8.260;2023-04-01T05:20:51;2.80;;;1.40;;
26656;SDS011;14279;50.010;8.260;2023-04-01T05:23:18;11.73;;;2.33;;
26656;SDS011;14279;50.010;8.260;2023-04-01T05:26:08;3.40;;;1.30;;
26656;SDS011;14279;50.010;8.260;2023-04-01T05:28:42;4.00;;;1.13;;
26656;SDS011;14279;50.010;8.260;2023-04-01T05:31:12;4.10;;;1.30;;
26656;SDS011;14279;50.010;8.260;2023-04-01T05:33:42;3.97;;;1.63;;
26656;SDS011;14279;50.010;8.260;2023-04-01T05:39:30;3.90;;;1.30;;
26656;SDS011;14279;50.010;8.260;2023-04-01T05:42:01;2.87;;;1.10;;
26656;SDS011;14279;50.010;8.260;2023-04-01T05:44:27;2.27;;;1.20;;
26656;SDS011;14279;50.010;8.260;2023-04-01T05:46:52;3.70;;;1.13;;
26656;SDS011;14279;50.010;8.260;2023-04-01T05:49:18;2.90;;;1.17;;
26656;SDS011;14279;50.010;8.260;2023-04-01T05:51:44;1.87;;;1.10;;
26656;SDS011;14279;50.010;8.260;2023-04-01T05:54:09;3.53;;;1.03;;
26656;SDS011;14279;50.010;8.260;2023-04-01T05:56:34;4.73;;;1.23;;
26656;SDS011;14279;50.010;8.260;2023-04-01T05:59:00;4.10;;;1.23;;
26656;SDS011;14279;50.010;8.260;2023-04-01T06:01:25;0.90;;;0.90;;
26656;SDS011;14279;50.010;8.260;2023-04-01T06:03:50;3.67;;;1.17;;
26656;SDS011;14279;50.010;8.260;2023-04-01T06:06:20;2.57;;;1.03;;
26656;SDS011;14279;50.010;8.260;2023-04-01T06:08:50;3.97;;;1.43;;
26656;SDS011;14279;50.010;8.260;2023-04-01T06:11:19;3.93;;;1.20;;
26656;SDS011;14279;50.010;8.260;2023-04-01T06:17:05;2.20;;;1.23;;
26656;SDS011;14279;50.010;8.260;2023-04-01T06:31:11;2.80;;;1.07;;
26656;SDS011;14279;50.010;8.260;2023-04-01T06:33:52;2.83;;;0.83;;
26656;SDS011;14279;50.010;8.260;2023-04-01T06:36:26;1.27;;;0.90;;
26656;SDS011;14279;50.010;8.260;2023-04-01T06:53:17;1.83;;;1.30;;
26656;SDS011;14279;50.010;8.260;2023-04-01T06:56:23;3.53;;;0.90;;
26656;SDS011;14279;50.010;8.260;2023-04-01T06:58:48;1.50;;;0.93;;
26656;SDS011;14279;50.010;8.260;2023-04-01T07:01:40;3.17;;;1.17;;
26656;SDS011;14279;50.010;8.260;2023-04-01T07:06:57;2.50;;;1.00;;
26656;SDS011;14279;50.010;8.260;2023-04-01T07:09:32;2.53;;;0.90;;
26656;SDS011;14279;50.010;8.260;2023-04-01T07:12:02;3.50;;;1.00;;
26656;SDS011;14279;50.010;8.260;2023-04-01T07:14:40;1.90;;;0.80;;
26656;SDS011;14279;50.010;8.260;2023-04-01T07:17:15;2.13;;;0.80;;
26656;SDS011;14279;50.010;8.260;2023-04-01T07:19:59;0.80;;;0.77;;
26656;SDS011;14279;50.010;8.260;2023-04-01T07:22:40;1.90;;;0.80;;
26656;SDS011;14279;50.010;8.260;2023-04-01T07:25:13;3.97;;;1.10;;
26656;SDS011;14279;50.010;8.260;2023-04-01T07:27:41;2.20;;;1.13;;
26656;SDS011;14279;50.010;8.260;2023-04-01T07:30:13;0.77;;;0.70;;
26656;SDS011;14279;50.010;8.260;2023-04-01T07:38:05;1.00;;;0.90;;
26656;SDS011;14279;50.010;8.260;2023-04-01T07:49:04;2.00;;;0.60;;
26656;SDS011;14279;50.010;8.260;2023-04-01T07:51:54;1.00;;;0.60;;
26656;SDS011;14279;50.010;8.260;2023-04-01T07:54:40;0.70;;;0.70;;
26656;SDS011;14279;50.010;8.260;2023-04-01T07:57:19;1.20;;;0.77;;
26656;SDS011;14279;50.010;8.260;2023-04-01T08:00:13;0.97;;;0.70;;
26656;SDS011;14279;50.010;8.260;2023-04-01T08:05:29;2.70;;;0.90;;
26656;SDS011;14279;50.010;8.260;2023-04-01T08:19:00;1.00;;;0.70;;
26656;SDS011;14279;50.010;8.260;2023-04-01T08:21:39;3.00;;;0.77;;
26656;SDS011;14279;50.010;8.260;2023-04-01T08:24:16;1.33;;;0.70;;
26656;SDS011;14279;50.010;8.260;2023-04-01T08:26:49;0.70;;;0.70;;
26656;SDS011;14279;50.010;8.260;2023-04-01T08:29:19;1.00;;;0.80;;
26656;SDS011;14279;50.010;8.260;2023-04-01T08:34:29;1.53;;;0.63;;
26656;SDS011;14279;50.010;8.260;2023-04-01T08:37:11;4.03;;;0.87;;
26656;SDS011;14279;50.010;8.260;2023-04-01T08:39:54;2.07;;;1.00;;
26656;SDS011;14279;50.010;8.260;2023-04-01T08:45:35;0.90;;;0.80;;
26656;SDS011;14279;50.010;8.260;2023-04-01T08:53:53;2.20;;;0.80;;
26656;SDS011;14279;50.010;8.260;2023-04-01T09:13:50;0.80;;;0.80;;
26656;SDS011;14279;50.010;8.260;2023-04-01T09:20:06;0.70;;;0.70;;
26656;SDS011;14279;50.010;8.260;2023-04-01T09:23:15;2.03;;;0.90;;
26656;SDS011;14279;50.010;8.260;2023-04-01T09:26:16;1.53;;;0.77;;
26656;SDS011;14279;50.010;8.260;2023-04-01T09:35:20;1.23;;;0.77;;
26656;SDS011;14279;50.010;8.260;2023-04-01T09:38:21;6.50;;;0.83;;
26656;SDS011;14279;50.010;8.260;2023-04-01T09:43:25;0.70;;;0.70;;
26656;SDS011;14279;50.010;8.260;2023-04-01T09:46:09;0.80;;;0.80;;
26656;SDS011;14279;50.010;8.260;2023-04-01T10:14:03;1.07;;;0.70;;
26656;SDS011;14279;50.010;8.260;2023-04-01T10:19:38;3.23;;;0.50;;
26656;SDS011;14279;50.010;8.260;2023-04-01T10:22:48;0.60;;;0.60;;
26656;SDS011;14279;50.010;8.260;2023-04-01T10:25:26;0.60;;;0.60;;
26656;SDS011;14279;50.010;8.260;2023-04-01T10:28:24;1.70;;;0.80;;
26656;SDS011;14279;50.010;8.260;2023-04-01T10:31:41;0.67;;;0.67;;
26656;SDS011;14279;50.010;8.260;2023-04-01T10:36:51;0.73;;;0.73;;
26656;SDS011;14279;50.010;8.260;2023-04-01T10:39:31;2.40;;;0.60;;
26656;SDS011;14279;50.010;8.260;2023-04-01T10:55:43;0.67;;;0.60;;
26656;SDS011;14279;50.010;8.260;2023-04-01T11:24:49;0.63;;;0.63;;
26656;SDS011;14279;50.010;8.260;2023-04-01T11:38:42;0.60;;;0.60;;
26656;SDS011;14279;50.010;8.260;2023-04-01T11:41:32;0.63;;;0.63;;
26656;SDS011;14279;50.010;8.260;2023-04-01T11:44:26;1.77;;;0.77;;
26656;SDS011;14279;50.010;8.260;2023-04-01T11:50:20;3.03;;;0.90;;
26656;SDS011;14279;50.010;8.260;2023-04-01T12:03:32;0.60;;;0.60;;
26656;SDS011;14279;50.010;8.260;2023-04-01T12:14:53;0.70;;;0.70;;
26656;SDS011;14279;50.010;8.260;2023-04-01T12:17:34;0.93;;;0.70;;
26656;SDS011;14279;50.010;8.260;2023-04-01T12:22:51;0.90;;;0.60;;
26656;SDS011;14279;50.010;8.260;2023-04-01T12:31:51;0.60;;;0.60;;
26656;SDS011;14279;50.010;8.260;2023-04-01T12:34:30;0.50;;;0.50;;
26656;SDS011;14279;50.010;8.260;2023-04-01T12:40:20;0.60;;;0.60;;
26656;SDS011;14279;50.010;8.260;2023-04-01T13:02:57;1.93;;;0.70;;
26656;SDS011;14279;50.010;8.260;2023-04-01T13:05:59;1.23;;;0.80;;
26656;SDS011;14279;50.010;8.260;2023-04-01T13:08:37;0.60;;;0.60;;
26656;SDS011;14279;50.010;8.260;2023-04-01T13:11:24;1.43;;;0.80;;
26656;SDS011;14279;50.010;8.260;2023-04-01T13:17:06;1.53;;;0.77;;
26656;SDS011;14279;50.010;8.260;2023-04-01T13:22:30;1.37;;;0.90;;
26656;SDS011;14279;50.010;8.260;2023-04-01T13:25:19;0.80;;;0.80;;
26656;SDS011;14279;50.010;8.260;2023-04-01T13:30:40;3.00;;;1.00;;
26656;SDS011;14279;50.010;8.260;2023-04-01T13:36:08;5.13;;;0.80;;
26656;SDS011;14279;50.010;8.260;2023-04-01T13:38:57;1.23;;;1.00;;
26656;SDS011;14279;50.010;8.260;2023-04-01T13:41:49;0.70;;;0.70;;
26656;SDS011;14279;50.010;8.260;2023-04-01T13:44:35;1.10;;;1.00;;
26656;SDS011;14279;50.010;8.260;2023-04-01T13:47:11;0.70;;;0.70;;
26656;SDS011;14279;50.010;8.260;2023-04-01T13:55:57;1.57;;;0.70;;
26656;SDS011;14279;50.010;8.260;2023-04-01T13:58:34;2.30;;;0.60;;
26656;SDS011;14279;50.010;8.260;2023-04-01T14:09:39;0.50;;;0.50;;
26656;SDS011;14279;50.010;8.260;2023-04-01T14:12:18;0.60;;;0.60;;
26656;SDS011;14279;50.010;8.260;2023-04-01T14:15:14;0.80;;;0.70;;
26656;SDS011;14279;50.010;8.260;2023-04-01T14:18:06;0.77;;;0.77;;
26656;SDS011;14279;50.010;8.260;2023-04-01T14:20:50;0.87;;;0.80;;
26656;SDS011;14279;50.010;8.260;2023-04-01T14:31:27;0.60;;;0.60;;
26656;SDS011;14279;50.010;8.260;2023-04-01T14:34:08;0.53;;;0.50;;
26656;SDS011;14279;50.010;8.260;2023-04-01T14:45:52;0.80;;;0.80;;
26656;SDS011;14279;50.010;8.260;2023-04-01T14:48:32;0.80;;;0.80;;
26656;SDS011;14279;50.010;8.260;2023-04-01T14:51:18;1.50;;;0.83;;
26656;SDS011;14279;50.010;8.260;2023-04-01T14:53:59;0.80;;;0.80;;
26656;SDS011;14279;50.010;8.260;2023-04-01T14:59:30;1.70;;;1.10;;
26656;SDS011;14279;50.010;8.260;2023-04-01T15:02:11;0.70;;;0.70;;
26656;SDS011;14279;50.010;8.260;2023-04-01T15:07:56;0.50;;;0.50;;
26656;SDS011;14279;50.010;8.260;2023-04-01T15:13:16;0.53;;;0.53;;
26656;SDS011;14279;50.010;8.260;2023-04-01T15:16:11;4.90;;;0.70;;
26656;SDS011;14279;50.010;8.260;2023-04-01T15:24:21;0.60;;;0.60;;
26656;SDS011;14279;50.010;8.260;2023-04-01T15:29:31;10.87;;;0.73;;
26656;SDS011;14279;50.010;8.260;2023-04-01T15:40:59;0.60;;;0.60;;
26656;SDS011;14279;50.010;8.260;2023-04-01T15:51:58;0.90;;;0.90;;
26656;SDS011;14279;50.010;8.260;2023-04-01T15:57:46;0.93;;;0.60;;
26656;SDS011;14279;50.010;8.260;2023-04-01T16:03:30;0.60;;;0.60;;
26656;SDS011;14279;50.010;8.260;2023-04-01T16:14:11;1.00;;;1.00;;
26656;SDS011;14279;50.010;8.260;2023-04-01T16:24:53;1.20;;;0.97;;
26656;SDS011;14279;50.010;8.260;2023-04-01T16:27:58;3.27;;;1.00;;
26656;SDS011;14279;50.010;8.260;2023-04-01T16:30:48;1.10;;;0.80;;
26656;SDS011;14279;50.010;8.260;2023-04-01T16:33:35;1.00;;;0.80;;
26656;SDS011;14279;50.010;8.260;2023-04-01T16:36:26;0.70;;;0.70;;
26656;SDS011;14279;50.010;8.260;2023-04-01T16:41:42;2.30;;;0.60;;
26656;SDS011;14279;50.010;8.260;2023-04-01T16:44:46;1.37;;;0.80;;
26656;SDS011;14279;50.010;8.260;2023-04-01T16:50:21;1.67;;;0.70;;
26656;SDS011;14279;50.010;8.260;2023-04-01T16:55:54;1.33;;;0.70;;
26656;SDS011;14279;50.010;8.260;2023-04-01T17:01:11;2.00;;;0.83;;
26656;SDS011;14279;50.010;8.260;2023-04-01T17:03:45;1.50;;;0.87;;
26656;SDS011;14279;50.010;8.260;2023-04-01T17:06:17;1.17;;;0.97;;
26656;SDS011;14279;50.010;8.260;2023-04-01T17:09:02;0.80;;;0.70;;
26656;SDS011;14279;50.010;8.260;2023-04-01T17:17:21;0.73;;;0.73;;
26656;SDS011;14279;50.010;8.260;2023-04-01T17:33:34;1.50;;;0.90;;
26656;SDS011;14279;50.010;8.260;2023-04-01T17:36:48;1.50;;;0.93;;
26656;SDS011;14279;50.010;8.260;2023-04-01T17:39:31;2.30;;;1.17;;
26656;SDS011;14279;50.010;8.260;2023-04-01T17:59:22;4.87;;;1.83;;
26656;SDS011;14279;50.010;8.260;2023-04-01T18:04:55;2.00;;;1.47;;
26656;SDS011;14279;50.010;8.260;2023-04-01T18:07:44;1.43;;;1.33;;
26656;SDS011;14279;50.010;8.260;2023-04-01T18:13:43;1.70;;;1.43;;
26656;SDS011;14279;50.010;8.260;2023-04-01T18:16:28;1.30;;;1.20;;
26656;SDS011;14279;50.010;8.260;2023-04-01T18:21:54;3.13;;;1.20;;
26656;SDS011;14279;50.010;8.260;2023-04-01T18:27:15;1.50;;;1.10;;
26656;SDS011;14279;50.010;8.260;2023-04-01T18:32:17;1.13;;;0.97;;
26656;SDS011;14279;50.010;8.260;2023-04-01T18:37:24;0.70;;;0.70;;
26656;SDS011;14279;50.010;8.260;2023-04-01T18:39:57;1.30;;;0.70;;
26656;SDS011;14279;50.010;8.260;2023-04-01T18:42:53;1.57;;;1.30;;
26656;SDS011;14279;50.010;8.260;2023-04-01T18:48:32;1.13;;;1.00;;
26656;SDS011;14279;50.010;8.260;2023-04-01T18:54:32;2.50;;;1.30;;
26656;SDS011;14279;50.010;8.260;2023-04-01T18:57:13;1.00;;;0.90;;
26656;SDS011;14279;50.010;8.260;2023-04-01T18:59:47;1.23;;;1.00;;
26656;SDS011;14279;50.010;8.260;2023-04-01T19:15:41;1.50;;;1.20;;
26656;SDS011;14279;50.010;8.260;2023-04-01T19:18:24;0.97;;;0.97;;
26656;SDS011;14279;50.010;8.260;2023-04-01T19:21:07;1.20;;;1.20;;
26656;SDS011;14279;50.010;8.260;2023-04-01T19:32:24;1.20;;;1.13;;
26656;SDS011;14279;50.010;8.260;2023-04-01T19:38:29;1.40;;;1.00;;
26656;SDS011;14279;50.010;8.260;2023-04-01T19:40:55;0.90;;;0.90;;
26656;SDS011;14279;50.010;8.260;2023-04-01T19:46:26;0.83;;;0.83;;
26656;SDS011;14279;50.010;8.260;2023-04-01T19:54:40;1.13;;;1.03;;
26656;SDS011;14279;50.010;8.260;2023-04-01T19:59:50;2.70;;;1.20;;
26656;SDS011;14279;50.010;8.260;2023-04-01T20:02:38;4.30;;;1.20;;
26656;SDS011;14279;50.010;8.260;2023-04-01T20:06:02;1.27;;;1.17;;
26656;SDS011;14279;50.010;8.260;2023-04-01T20:08:29;1.63;;;1.40;;
26656;SDS011;14279;50.010;8.260;2023-04-01T20:11:08;1.57;;;1.47;;
26656;SDS011;14279;50.010;8.260;2023-04-01T20:14:26;2.03;;;1.33;;
26656;SDS011;14279;50.010;8.260;2023-04-01T20:25:21;1.20;;;1.20;;
26656;SDS011;14279;50.010;8.260;2023-04-01T20:30:25;1.33;;;1.23;;
26656;SDS011;14279;50.010;8.260;2023-04-01T20:44:29;1.80;;;1.07;;
26656;SDS011;14279;50.010;8.260;2023-04-01T20:47:15;1.00;;;1.00;;
26656;SDS011;14279;50.010;8.260;2023-04-01T20:49:54;0.80;;;0.80;;
26656;SDS011;14279;50.010;8.260;2023-04-01T21:05:42;1.30;;;1.20;;
26656;SDS011;14279;50.010;8.260;2023-04-01T21:10:58;1.63;;;1.13;;
26656;SDS011;14279;50.010;8.260;2023-04-01T21:16:41;1.27;;;1.03;;
26656;SDS011;14279;50.010;8.260;2023-04-01T21:19:24;1.67;;;1.40;;
26656;SDS011;14279;50.010;8.260;2023-04-01T21:22:23;3.60;;;0.93;;
26656;SDS011;14279;50.010;8.260;2023-04-01T21:25:03;1.57;;;1.40;;
26656;SDS011;14279;50.010;8.260;2023-04-01T21:27:55;1.70;;;1.40;;
26656;SDS011;14279;50.010;8.260;2023-04-01T21:33:50;1.47;;;1.20;;
26656;SDS011;14279;50.010;8.260;2023-04-01T21:39:16;0.90;;;0.90;;
26656;SDS011;14279;50.010;8.260;2023-04-01T21:41:57;3.33;;;1.30;;
26656;SDS011;14279;50.010;8.260;2023-04-01T22:00:24;1.37;;;1.20;;
26656;SDS011;14279;50.010;8.260;2023-04-01T22:05:51;1.63;;;1.33;;
26656;SDS011;14279;50.010;8.260;2023-04-01T22:13:47;1.10;;;1.10;;
26656;SDS011;14279;50.010;8.260;2023-04-01T22:16:20;1.30;;;1.20;;
26656;SDS011;14279;50.010;8.260;2023-04-01T22:19:06;5.83;;;1.73;;
26656;SDS011;14279;50.010;8.260;2023-04-01T22:22:00;2.10;;;1.30;;
26656;SDS011;14279;50.010;8.260;2023-04-01T22:24:34;3.43;;;1.30;;
26656;SDS011;14279;50.010;8.260;2023-04-01T22:27:10;1.63;;;1.00;;
26656;SDS011;14279;50.010;8.260;2023-04-01T22:32:18;1.40;;;1.33;;
26656;SDS011;14279;50.010;8.260;2023-04-01T22:34:52;2.30;;;1.10;;
26656;SDS011;14279;50.010;8.260;2023-04-01T22:40:16;5.77;;;1.10;;
26656;SDS011;14279;50.010;8.260;2023-04-01T22:43:04;1.87;;;1.50;;
26656;SDS011;14279;50.010;8.260;2023-04-01T22:45:40;2.50;;;1.40;;
26656;SDS011;14279;50.010;8.260;2023-04-01T22:48:29;1.43;;;1.33;;
26656;SDS011;14279;50.010;8.260;2023-04-01T22:51:13;1.40;;;1.30;;
26656;SDS011;14279;50.010;8.260;2023-04-01T22:56:41;1.50;;;1.40;;
26656;SDS011;14279;50.010;8.260;2023-04-01T22:59:31;9.40;;;1.63;;
26656;SDS011;14279;50.010;8.260;2023-04-01T23:02:15;4.43;;;1.17;;
26656;SDS011;14279;50.010;8.260;2023-04-01T23:04:47;1.00;;;1.00;;
26656;SDS011;14279;50.010;8.260;2023-04-01T23:10:23;3.03;;;1.23;;
26656;SDS011;14279;50.010;8.260;2023-04-01T23:12:58;1.30;;;1.20;;
26656;SDS011;14279;50.010;8.260;2023-04-01T23:15:26;1.93;;;1.70;;
26656;SDS011;14279;50.010;8.260;2023-04-01T23:18:04;1.17;;;1.17;;
26656;SDS011;14279;50.010;8.260;2023-04-01T23:23:24;1.30;;;1.20;;
26656;SDS011;14279;50.010;8.260;2023-04-01T23:28:56;2.63;;;1.20;;
26656;SDS011;14279;50.010;8.260;2023-04-01T23:36:38;1.53;;;1.43;;
26656;SDS011;14279;50.010;8.260;2023-04-01T23:39:08;1.40;;;1.20;;
26656;SDS011;14279;50.010;8.260;2023-04-01T23:41:46;2.87;;;1.60;;
26656;SDS011;14279;50.010;8.260;2023-04-01T23:44:12;1.17;;;1.17;;
26656;SDS011;14279;50.010;8.260;2023-04-01T23:46:39;1.57;;;1.47;;
26656;SDS011;14279;50.010;8.260;2023-04-01T23:49:17;2.00;;;1.20;;
26656;SDS011;14279;50.010;8.260;2023-04-01T23:51:49;1.27;;;1.17;;
26656;SDS011;14279;50.010;8.260;2023-04-01T23:54:25;2.87;;;1.40;;
26656;SDS011;14279;50.010;8.260;2023-04-01T23:56:56;1.30;;;1.20;;
26656;SDS011;14279;50.010;8.260;2023-04-01T23:59:23;1.43;;;1.33;;
